sensor_id;sensor_type;location;lat;lon;timestamp;temperature;humidity
73133;DHT22;61320;52.008;4.530;2022-12-05T00:01:53;6.60;77.41
73133;DHT22;61320;52.008;4.530;2022-12-05T00:04:18;6.60;76.86
73133;DHT22;61320;52.008;4.530;2022-12-05T00:06:44;6.54;77.40
73133;DHT22;61320;52.008;4.530;2022-12-05T00:09:12;6.60;77.50
73133;DHT22;61320;52.008;4.530;2022-12-05T00:11:40;6.60;76.77
73133;DHT22;61320;52.008;4.530;2022-12-05T00:14:07;6.57;77.71
73133;DHT22;61320;52.008;4.530;2022-12-05T01:02:31;6.84;77.52
73133;DHT22;61320;52.008;4.530;2022-12-05T01:04:56;6.87;77.84
73133;DHT22;61320;52.008;4.530;2022-12-05T01:07:22;6.87;77.56
73133;DHT22;61320;52.008;4.530;2022-12-05T01:09:48;6.91;77.27
73133;DHT22;61320;52.008;4.530;2022-12-05T01:12:13;6.95;76.97
73133;DHT22;61320;52.008;4.530;2022-12-05T01:14:39;6.88;76.95
73133;DHT22;61320;52.008;4.530;2022-12-05T01:31:24;6.83;77.92
73133;DHT22;61320;52.008;4.530;2022-12-05T01:33:51;6.87;77.85
73133;DHT22;61320;52.008;4.530;2022-12-05T01:36:18;6.88;77.70
73133;DHT22;61320;52.008;4.530;2022-12-05T01:38:44;6.88;77.86
73133;DHT22;61320;52.008;4.530;2022-12-05T01:41:14;6.92;77.60
73133;DHT22;61320;52.008;4.530;2022-12-05T01:44:04;7.00;77.82
73133;DHT22;61320;52.008;4.530;2022-12-05T02:21:34;7.00;77.74
73133;DHT22;61320;52.008;4.530;2022-12-05T02:26:58;7.07;77.79
73133;DHT22;61320;52.008;4.530;2022-12-05T02:29:54;7.05;77.77
73133;DHT22;61320;52.008;4.530;2022-12-05T02:35:53;7.09;77.90
73133;DHT22;61320;52.008;4.530;2022-12-05T02:41:15;6.98;78.20
73133;DHT22;61320;52.008;4.530;2022-12-05T02:43:58;7.08;77.70
73133;DHT22;61320;52.008;4.530;2022-12-05T02:46:29;7.00;78.34
73133;DHT22;61320;52.008;4.530;2022-12-05T02:49:00;7.00;78.25
73133;DHT22;61320;52.008;4.530;2022-12-05T02:51:32;7.04;78.53
73133;DHT22;61320;52.008;4.530;2022-12-05T02:54:07;7.04;78.59
73133;DHT22;61320;52.008;4.530;2022-12-05T02:56:35;7.01;78.33
73133;DHT22;61320;52.008;4.530;2022-12-05T02:59:01;7.01;77.78
73133;DHT22;61320;52.008;4.530;2022-12-05T03:01:30;7.01;78.60
73133;DHT22;61320;52.008;4.530;2022-12-05T03:03:59;7.05;78.60
73133;DHT22;61320;52.008;4.530;2022-12-05T03:06:33;7.09;78.50
73133;DHT22;61320;52.008;4.530;2022-12-05T03:09:14;7.12;78.84
73133;DHT22;61320;52.008;4.530;2022-12-05T03:11:52;7.14;78.23
73133;DHT22;61320;52.008;4.530;2022-12-05T03:14:23;7.15;78.02
73133;DHT22;61320;52.008;4.530;2022-12-05T03:16:53;7.18;78.21
73133;DHT22;61320;52.008;4.530;2022-12-05T03:19:27;7.14;77.81
73133;DHT22;61320;52.008;4.530;2022-12-05T03:22:07;7.11;77.75
73133;DHT22;61320;52.008;4.530;2022-12-05T03:24:39;7.05;78.08
73133;DHT22;61320;52.008;4.530;2022-12-05T03:27:21;7.07;78.68
73133;DHT22;61320;52.008;4.530;2022-12-05T03:30:06;7.09;78.30
73133;DHT22;61320;52.008;4.530;2022-12-05T03:35:39;7.07;78.76
73133;DHT22;61320;52.008;4.530;2022-12-05T03:38:32;7.08;78.72
73133;DHT22;61320;52.008;4.530;2022-12-05T03:41:16;7.07;79.05
73133;DHT22;61320;52.008;4.530;2022-12-05T03:44:07;7.16;78.63
73133;DHT22;61320;52.008;4.530;2022-12-05T03:46:36;7.15;78.79
73133;DHT22;61320;52.008;4.530;2022-12-05T03:49:15;7.05;78.90
73133;DHT22;61320;52.008;4.530;2022-12-05T03:52:06;7.12;79.50
73133;DHT22;61320;52.008;4.530;2022-12-05T03:57:34;7.09;78.30
73133;DHT22;61320;52.008;4.530;2022-12-05T04:00:06;7.00;79.01
73133;DHT22;61320;52.008;4.530;2022-12-05T04:05:37;7.14;79.55
73133;DHT22;61320;52.008;4.530;2022-12-05T04:08:19;7.22;79.12
73133;DHT22;61320;52.008;4.530;2022-12-05T04:10:48;7.18;78.77
73133;DHT22;61320;52.008;4.530;2022-12-05T04:13:20;7.21;79.09
73133;DHT22;61320;52.008;4.530;2022-12-05T04:16:42;7.18;78.81
73133;DHT22;61320;52.008;4.530;2022-12-05T04:21:53;7.29;78.88
73133;DHT22;61320;52.008;4.530;2022-12-05T04:24:24;7.32;78.59
73133;DHT22;61320;52.008;4.530;2022-12-05T04:27:35;7.31;79.26
73133;DHT22;61320;52.008;4.530;2022-12-05T04:32:44;7.36;79.26
73133;DHT22;61320;52.008;4.530;2022-12-05T04:35:18;7.39;78.85
73133;DHT22;61320;52.008;4.530;2022-12-05T04:37:50;7.36;78.57
73133;DHT22;61320;52.008;4.530;2022-12-05T04:40:23;7.40;79.14
73133;DHT22;61320;52.008;4.530;2022-12-05T04:42:55;7.40;79.45
73133;DHT22;61320;52.008;4.530;2022-12-05T04:45:25;7.49;78.79
73133;DHT22;61320;52.008;4.530;2022-12-05T04:47:57;7.52;78.81
73133;DHT22;61320;52.008;4.530;2022-12-05T04:50:27;7.55;78.54
73133;DHT22;61320;52.008;4.530;2022-12-05T04:52:57;7.50;78.93
73133;DHT22;61320;52.008;4.530;2022-12-05T04:55:25;7.58;78.81
73133;DHT22;61320;52.008;4.530;2022-12-05T04:58:00;7.55;78.84
73133;DHT22;61320;52.008;4.530;2022-12-05T05:00:38;7.56;78.76
73133;DHT22;61320;52.008;4.530;2022-12-05T05:07:13;7.62;78.57
73133;DHT22;61320;52.008;4.530;2022-12-05T05:10:01;7.62;78.62
73133;DHT22;61320;52.008;4.530;2022-12-05T05:12:48;7.62;78.29
73133;DHT22;61320;52.008;4.530;2022-12-05T05:15:23;7.59;78.48
73133;DHT22;61320;52.008;4.530;2022-12-05T05:17:52;7.56;78.40
73133;DHT22;61320;52.008;4.530;2022-12-05T05:20:41;7.58;79.13
73133;DHT22;61320;52.008;4.530;2022-12-05T05:23:44;7.62;79.06
73133;DHT22;61320;52.008;4.530;2022-12-05T05:26:13;7.65;78.88
73133;DHT22;61320;52.008;4.530;2022-12-05T05:32:20;7.58;79.19
73133;DHT22;61320;52.008;4.530;2022-12-05T05:34:45;7.60;78.93
73133;DHT22;61320;52.008;4.530;2022-12-05T05:37:11;7.62;79.00
73133;DHT22;61320;52.008;4.530;2022-12-05T05:39:36;7.62;78.56
73133;DHT22;61320;52.008;4.530;2022-12-05T05:42:02;7.62;78.85
73133;DHT22;61320;52.008;4.530;2022-12-05T05:44:28;7.63;78.98
73133;DHT22;61320;52.008;4.530;2022-12-05T05:46:53;7.65;79.03
73133;DHT22;61320;52.008;4.530;2022-12-05T05:49:22;7.71;78.89
73133;DHT22;61320;52.008;4.530;2022-12-05T05:51:56;7.74;77.93
73133;DHT22;61320;52.008;4.530;2022-12-05T05:55:03;7.71;78.71
73133;DHT22;61320;52.008;4.530;2022-12-05T05:58:01;7.69;78.35
73133;DHT22;61320;52.008;4.530;2022-12-05T07:18:02;7.97;78.80
73133;DHT22;61320;52.008;4.530;2022-12-05T07:20:28;7.95;78.42
73133;DHT22;61320;52.008;4.530;2022-12-05T07:22:53;7.94;78.37
73133;DHT22;61320;52.008;4.530;2022-12-05T07:25:19;7.95;78.73
73133;DHT22;61320;52.008;4.530;2022-12-05T07:27:46;8.00;78.93
73133;DHT22;61320;52.008;4.530;2022-12-05T07:30:12;7.97;78.51
73133;DHT22;61320;52.008;4.530;2022-12-05T07:32:38;7.98;79.09
73133;DHT22;61320;52.008;4.530;2022-12-05T07:48:35;7.97;78.63
73133;DHT22;61320;52.008;4.530;2022-12-05T07:51:02;7.98;79.14
73133;DHT22;61320;52.008;4.530;2022-12-05T07:53:29;8.05;78.52
73133;DHT22;61320;52.008;4.530;2022-12-05T07:55:58;8.02;78.45
73133;DHT22;61320;52.008;4.530;2022-12-05T07:58:25;8.00;79.12
73133;DHT22;61320;52.008;4.530;2022-12-05T08:00:50;8.04;78.66
73133;DHT22;61320;52.008;4.530;2022-12-05T08:03:16;8.02;79.13
73133;DHT22;61320;52.008;4.530;2022-12-05T08:05:41;8.04;78.44
73133;DHT22;61320;52.008;4.530;2022-12-05T08:08:07;8.05;78.90
73133;DHT22;61320;52.008;4.530;2022-12-05T08:10:33;8.05;79.23
73133;DHT22;61320;52.008;4.530;2022-12-05T08:12:59;8.07;78.93
73133;DHT22;61320;52.008;4.530;2022-12-05T08:15:24;8.12;78.80
73133;DHT22;61320;52.008;4.530;2022-12-05T08:17:50;8.18;78.99
73133;DHT22;61320;52.008;4.530;2022-12-05T08:20:15;8.21;78.36
73133;DHT22;61320;52.008;4.530;2022-12-05T08:22:41;8.14;78.49
73133;DHT22;61320;52.008;4.530;2022-12-05T08:25:07;8.15;79.28
73133;DHT22;61320;52.008;4.530;2022-12-05T08:27:32;8.25;78.84
73133;DHT22;61320;52.008;4.530;2022-12-05T08:29:58;8.25;78.68
73133;DHT22;61320;52.008;4.530;2022-12-05T08:32:23;8.25;78.35
73133;DHT22;61320;52.008;4.530;2022-12-05T08:34:49;8.27;78.57
73133;DHT22;61320;52.008;4.530;2022-12-05T08:37:14;8.28;78.45
73133;DHT22;61320;52.008;4.530;2022-12-05T08:39:40;8.24;78.70
73133;DHT22;61320;52.008;4.530;2022-12-05T08:42:05;8.31;78.51
73133;DHT22;61320;52.008;4.530;2022-12-05T08:44:30;8.32;78.72
73133;DHT22;61320;52.008;4.530;2022-12-05T08:46:56;8.32;78.18
73133;DHT22;61320;52.008;4.530;2022-12-05T08:49:21;8.32;78.71
73133;DHT22;61320;52.008;4.530;2022-12-05T08:51:47;8.35;78.72
73133;DHT22;61320;52.008;4.530;2022-12-05T08:54:13;8.38;78.55
73133;DHT22;61320;52.008;4.530;2022-12-05T08:56:39;8.38;78.35
73133;DHT22;61320;52.008;4.530;2022-12-05T08:59:05;8.38;78.47
73133;DHT22;61320;52.008;4.530;2022-12-05T09:01:32;8.44;78.27
73133;DHT22;61320;52.008;4.530;2022-12-05T09:03:59;8.45;77.96
73133;DHT22;61320;52.008;4.530;2022-12-05T09:06:27;8.46;78.13
73133;DHT22;61320;52.008;4.530;2022-12-05T09:08:56;8.45;78.12
73133;DHT22;61320;52.008;4.530;2022-12-05T09:11:25;8.49;78.39
73133;DHT22;61320;52.008;4.530;2022-12-05T09:13:52;8.48;78.26
73133;DHT22;61320;52.008;4.530;2022-12-05T09:16:29;8.46;77.89
73133;DHT22;61320;52.008;4.530;2022-12-05T09:18:56;8.45;78.15
73133;DHT22;61320;52.008;4.530;2022-12-05T09:21:28;8.49;78.29
73133;DHT22;61320;52.008;4.530;2022-12-05T09:23:55;8.42;77.99
73133;DHT22;61320;52.008;4.530;2022-12-05T09:26:24;8.44;78.31
73133;DHT22;61320;52.008;4.530;2022-12-05T09:28:50;8.46;78.59
73133;DHT22;61320;52.008;4.530;2022-12-05T09:31:22;8.46;78.81
73133;DHT22;61320;52.008;4.530;2022-12-05T09:33:49;8.55;78.85
73133;DHT22;61320;52.008;4.530;2022-12-05T09:36:25;8.48;77.81
73133;DHT22;61320;52.008;4.530;2022-12-05T09:38:52;8.46;78.37
73133;DHT22;61320;52.008;4.530;2022-12-05T09:41:49;8.48;78.12
73133;DHT22;61320;52.008;4.530;2022-12-05T09:55:29;8.60;78.49
73133;DHT22;61320;52.008;4.530;2022-12-05T09:57:59;8.62;78.34
73133;DHT22;61320;52.008;4.530;2022-12-05T10:00:28;8.65;78.01
73133;DHT22;61320;52.008;4.530;2022-12-05T10:03:09;8.69;78.25
73133;DHT22;61320;52.008;4.530;2022-12-05T10:06:05;8.72;78.44
73133;DHT22;61320;52.008;4.530;2022-12-05T10:11:40;8.73;78.03
73133;DHT22;61320;52.008;4.530;2022-12-05T10:16:59;8.73;77.89
73133;DHT22;61320;52.008;4.530;2022-12-05T10:19:38;8.69;78.32
73133;DHT22;61320;52.008;4.530;2022-12-05T10:22:17;8.72;78.25
73133;DHT22;61320;52.008;4.530;2022-12-05T10:24:48;8.73;77.88
73133;DHT22;61320;52.008;4.530;2022-12-05T10:27:20;8.72;78.08
73133;DHT22;61320;52.008;4.530;2022-12-05T10:29:58;8.72;78.25
73133;DHT22;61320;52.008;4.530;2022-12-05T10:35:36;8.83;78.39
73133;DHT22;61320;52.008;4.530;2022-12-05T10:40:59;8.84;78.16
73133;DHT22;61320;52.008;4.530;2022-12-05T10:43:28;8.87;77.81
73133;DHT22;61320;52.008;4.530;2022-12-05T10:45:54;8.86;77.96
73133;DHT22;61320;52.008;4.530;2022-12-05T10:51:47;8.89;78.05
73133;DHT22;61320;52.008;4.530;2022-12-05T10:54:48;8.79;78.01
73133;DHT22;61320;52.008;4.530;2022-12-05T10:58:07;8.79;78.54
73133;DHT22;61320;52.008;4.530;2022-12-05T11:01:32;8.83;78.25
73133;DHT22;61320;52.008;4.530;2022-12-05T11:03:59;8.81;77.96
73133;DHT22;61320;52.008;4.530;2022-12-05T11:06:31;8.75;78.53
73133;DHT22;61320;52.008;4.530;2022-12-05T11:09:16;8.80;78.56
73133;DHT22;61320;52.008;4.530;2022-12-05T11:12:03;8.81;78.42
73133;DHT22;61320;52.008;4.530;2022-12-05T11:14:30;8.80;78.78
73133;DHT22;61320;52.008;4.530;2022-12-05T11:17:00;8.76;78.58
73133;DHT22;61320;52.008;4.530;2022-12-05T11:19:34;8.79;78.57
73133;DHT22;61320;52.008;4.530;2022-12-05T11:22:02;8.79;78.58
73133;DHT22;61320;52.008;4.530;2022-12-05T11:24:35;8.81;78.61
73133;DHT22;61320;52.008;4.530;2022-12-05T11:27:31;8.81;78.46
73133;DHT22;61320;52.008;4.530;2022-12-05T11:30:19;8.80;78.13
73133;DHT22;61320;52.008;4.530;2022-12-05T11:32:45;8.81;78.56
73133;DHT22;61320;52.008;4.530;2022-12-05T11:38:06;8.83;78.29
73133;DHT22;61320;52.008;4.530;2022-12-05T11:40:54;8.79;78.50
73133;DHT22;61320;52.008;4.530;2022-12-05T11:46:44;8.90;78.61
73133;DHT22;61320;52.008;4.530;2022-12-05T11:54:51;8.93;78.19
73133;DHT22;61320;52.008;4.530;2022-12-05T12:05:53;8.97;78.51
73133;DHT22;61320;52.008;4.530;2022-12-05T12:08:41;9.03;78.26
73133;DHT22;61320;52.008;4.530;2022-12-05T12:14:15;9.08;78.39
73133;DHT22;61320;52.008;4.530;2022-12-05T12:22:50;9.13;77.36
73133;DHT22;61320;52.008;4.530;2022-12-05T12:25:31;9.11;78.50
73133;DHT22;61320;52.008;4.530;2022-12-05T12:33:39;9.16;77.63
73133;DHT22;61320;52.008;4.530;2022-12-05T12:36:31;9.18;78.36
73133;DHT22;61320;52.008;4.530;2022-12-05T12:39:31;9.20;78.03
73133;DHT22;61320;52.008;4.530;2022-12-05T12:42:20;9.20;77.56
73133;DHT22;61320;52.008;4.530;2022-12-05T13:03:29;9.07;78.48
73133;DHT22;61320;52.008;4.530;2022-12-05T13:06:21;9.04;78.62
73133;DHT22;61320;52.008;4.530;2022-12-05T13:08:53;9.07;78.66
73133;DHT22;61320;52.008;4.530;2022-12-05T13:11:21;9.04;77.42
73133;DHT22;61320;52.008;4.530;2022-12-05T13:13:51;9.03;78.52
73133;DHT22;61320;52.008;4.530;2022-12-05T13:16:24;9.06;78.56
73133;DHT22;61320;52.008;4.530;2022-12-05T13:18:50;9.07;78.50
73133;DHT22;61320;52.008;4.530;2022-12-05T13:21:16;9.11;78.29
73133;DHT22;61320;52.008;4.530;2022-12-05T13:23:49;9.11;78.74
73133;DHT22;61320;52.008;4.530;2022-12-05T13:26:17;9.17;78.48
73133;DHT22;61320;52.008;4.530;2022-12-05T13:28:52;9.21;78.29
73133;DHT22;61320;52.008;4.530;2022-12-05T13:31:42;9.18;78.22
73133;DHT22;61320;52.008;4.530;2022-12-05T13:36:56;9.13;76.98
73133;DHT22;61320;52.008;4.530;2022-12-05T13:39:50;9.17;78.79
73133;DHT22;61320;52.008;4.530;2022-12-05T13:42:34;9.17;78.56
73133;DHT22;61320;52.008;4.530;2022-12-05T13:58:48;9.26;78.36
73133;DHT22;61320;52.008;4.530;2022-12-05T14:04:00;9.32;78.52
73133;DHT22;61320;52.008;4.530;2022-12-05T14:17:40;9.35;78.49
73133;DHT22;61320;52.008;4.530;2022-12-05T14:20:35;9.32;78.16
73133;DHT22;61320;52.008;4.530;2022-12-05T14:34:22;9.28;78.57
73133;DHT22;61320;52.008;4.530;2022-12-05T14:37:06;9.26;78.81
73133;DHT22;61320;52.008;4.530;2022-12-05T14:39:50;9.28;78.66
73133;DHT22;61320;52.008;4.530;2022-12-05T14:42:40;9.27;78.59
73133;DHT22;61320;52.008;4.530;2022-12-05T14:45:37;9.30;78.30
73133;DHT22;61320;52.008;4.530;2022-12-05T14:50:48;9.20;78.92
73133;DHT22;61320;52.008;4.530;2022-12-05T14:56:04;9.18;78.38
73133;DHT22;61320;52.008;4.530;2022-12-05T15:01:13;9.16;78.53
73133;DHT22;61320;52.008;4.530;2022-12-05T15:04:01;9.16;78.31
73133;DHT22;61320;52.008;4.530;2022-12-05T15:06:28;9.11;78.12
73133;DHT22;61320;52.008;4.530;2022-12-05T15:08:56;9.10;79.16
73133;DHT22;61320;52.008;4.530;2022-12-05T15:11:24;9.14;78.10
73133;DHT22;61320;52.008;4.530;2022-12-05T15:16:39;9.16;78.96
73133;DHT22;61320;52.008;4.530;2022-12-05T15:19:18;9.16;78.51
73133;DHT22;61320;52.008;4.530;2022-12-05T15:21:51;9.11;78.25
73133;DHT22;61320;52.008;4.530;2022-12-05T15:24:20;9.10;78.99
73133;DHT22;61320;52.008;4.530;2022-12-05T15:26:55;9.11;79.13
73133;DHT22;61320;52.008;4.530;2022-12-05T15:31:48;9.07;79.06
73133;DHT22;61320;52.008;4.530;2022-12-05T15:37:12;9.06;78.64
73133;DHT22;61320;52.008;4.530;2022-12-05T15:39:58;9.08;78.68
73133;DHT22;61320;52.008;4.530;2022-12-05T15:42:30;9.07;79.31
73133;DHT22;61320;52.008;4.530;2022-12-05T15:47:44;9.13;79.28
73133;DHT22;61320;52.008;4.530;2022-12-05T15:53:04;9.06;78.79
73133;DHT22;61320;52.008;4.530;2022-12-05T15:55:54;9.07;79.05
73133;DHT22;61320;52.008;4.530;2022-12-05T16:01:17;9.01;79.10
73133;DHT22;61320;52.008;4.530;2022-12-05T16:03:46;9.00;79.54
73133;DHT22;61320;52.008;4.530;2022-12-05T16:06:21;9.06;79.01
73133;DHT22;61320;52.008;4.530;2022-12-05T16:08:50;9.07;79.75
73133;DHT22;61320;52.008;4.530;2022-12-05T16:11:16;9.11;79.50
73133;DHT22;61320;52.008;4.530;2022-12-05T16:13:48;9.11;79.47
73133;DHT22;61320;52.008;4.530;2022-12-05T16:16:20;9.14;79.31
73133;DHT22;61320;52.008;4.530;2022-12-05T16:18:53;9.16;79.21
73133;DHT22;61320;52.008;4.530;2022-12-05T16:21:46;9.17;79.29
73133;DHT22;61320;52.008;4.530;2022-12-05T16:24:30;9.20;79.22
73133;DHT22;61320;52.008;4.530;2022-12-05T16:29:27;9.21;78.81
73133;DHT22;61320;52.008;4.530;2022-12-05T16:31:55;9.16;78.82
73133;DHT22;61320;52.008;4.530;2022-12-05T16:34:24;9.11;78.55
73133;DHT22;61320;52.008;4.530;2022-12-05T16:36:56;9.07;78.81
73133;DHT22;61320;52.008;4.530;2022-12-05T16:39:25;9.04;79.22
73133;DHT22;61320;52.008;4.530;2022-12-05T16:41:51;9.04;79.38
73133;DHT22;61320;52.008;4.530;2022-12-05T16:47:24;9.06;79.53
73133;DHT22;61320;52.008;4.530;2022-12-05T16:49:50;9.06;79.62
73133;DHT22;61320;52.008;4.530;2022-12-05T16:56:10;9.16;79.39
73133;DHT22;61320;52.008;4.530;2022-12-05T16:59:05;9.14;79.50
73133;DHT22;61320;52.008;4.530;2022-12-05T17:01:37;9.21;79.08
73133;DHT22;61320;52.008;4.530;2022-12-05T17:04:09;9.16;79.52
73133;DHT22;61320;52.008;4.530;2022-12-05T17:06:45;9.20;79.30
73133;DHT22;61320;52.008;4.530;2022-12-05T17:09:56;9.11;78.48
73133;DHT22;61320;52.008;4.530;2022-12-05T17:12:24;9.07;78.80
73133;DHT22;61320;52.008;4.530;2022-12-05T17:14:59;9.06;79.46
73133;DHT22;61320;52.008;4.530;2022-12-05T17:21:59;9.07;79.52
73133;DHT22;61320;52.008;4.530;2022-12-05T17:24:26;9.08;78.83
73133;DHT22;61320;52.008;4.530;2022-12-05T17:26:52;9.06;79.47
73133;DHT22;61320;52.008;4.530;2022-12-05T17:29:18;9.07;79.43
73133;DHT22;61320;52.008;4.530;2022-12-05T17:31:43;9.13;78.96
73133;DHT22;61320;52.008;4.530;2022-12-05T17:34:17;9.11;79.23
73133;DHT22;61320;52.008;4.530;2022-12-05T17:36:46;9.10;79.17
73133;DHT22;61320;52.008;4.530;2022-12-05T17:39:30;9.10;78.84
73133;DHT22;61320;52.008;4.530;2022-12-05T17:41:55;9.04;79.41
73133;DHT22;61320;52.008;4.530;2022-12-05T17:44:29;9.01;79.07
73133;DHT22;61320;52.008;4.530;2022-12-05T17:46:54;9.03;79.22
73133;DHT22;61320;52.008;4.530;2022-12-05T17:49:20;9.06;79.69
73133;DHT22;61320;52.008;4.530;2022-12-05T17:52:09;9.07;79.35
73133;DHT22;61320;52.008;4.530;2022-12-05T17:54:35;9.10;78.91
73133;DHT22;61320;52.008;4.530;2022-12-05T17:57:17;9.08;79.19
73133;DHT22;61320;52.008;4.530;2022-12-05T17:59:54;9.10;79.64
73133;DHT22;61320;52.008;4.530;2022-12-05T18:02:29;9.17;79.10
73133;DHT22;61320;52.008;4.530;2022-12-05T18:05:53;9.20;78.92
73133;DHT22;61320;52.008;4.530;2022-12-05T18:08:19;9.17;79.22
73133;DHT22;61320;52.008;4.530;2022-12-05T18:10:46;9.18;79.26
73133;DHT22;61320;52.008;4.530;2022-12-05T18:13:13;9.21;78.89
73133;DHT22;61320;52.008;4.530;2022-12-05T18:15:39;9.18;78.95
73133;DHT22;61320;52.008;4.530;2022-12-05T18:18:06;9.23;79.33
73133;DHT22;61320;52.008;4.530;2022-12-05T18:20:33;9.23;78.40
73133;DHT22;61320;52.008;4.530;2022-12-05T18:23:00;9.23;78.99
73133;DHT22;61320;52.008;4.530;2022-12-05T18:25:27;9.23;78.97
73133;DHT22;61320;52.008;4.530;2022-12-05T18:27:52;9.24;78.39
73133;DHT22;61320;52.008;4.530;2022-12-05T18:30:18;9.21;79.05
73133;DHT22;61320;52.008;4.530;2022-12-05T18:32:43;9.24;79.22
73133;DHT22;61320;52.008;4.530;2022-12-05T18:35:08;9.30;78.84
73133;DHT22;61320;52.008;4.530;2022-12-05T18:37:58;9.28;79.14
73133;DHT22;61320;52.008;4.530;2022-12-05T18:40:40;9.32;78.93
73133;DHT22;61320;52.008;4.530;2022-12-05T18:43:13;9.32;79.06
73133;DHT22;61320;52.008;4.530;2022-12-05T18:45:38;9.34;78.95
73133;DHT22;61320;52.008;4.530;2022-12-05T18:48:07;9.32;78.83
73133;DHT22;61320;52.008;4.530;2022-12-05T18:50:44;9.31;79.10
73133;DHT22;61320;52.008;4.530;2022-12-05T18:53:10;9.32;79.01
73133;DHT22;61320;52.008;4.530;2022-12-05T18:55:35;9.34;79.04
73133;DHT22;61320;52.008;4.530;2022-12-05T18:58:00;9.32;78.67
73133;DHT22;61320;52.008;4.530;2022-12-05T19:00:27;9.32;79.10
73133;DHT22;61320;52.008;4.530;2022-12-05T19:02:53;9.34;78.80
73133;DHT22;61320;52.008;4.530;2022-12-05T19:05:18;9.35;78.30
73133;DHT22;61320;52.008;4.530;2022-12-05T19:07:44;9.37;78.77
73133;DHT22;61320;52.008;4.530;2022-12-05T19:10:10;9.35;78.61
73133;DHT22;61320;52.008;4.530;2022-12-05T19:12:36;9.31;78.88
73133;DHT22;61320;52.008;4.530;2022-12-05T19:15:01;9.32;78.62
73133;DHT22;61320;52.008;4.530;2022-12-05T19:17:27;9.31;78.66
73133;DHT22;61320;52.008;4.530;2022-12-05T19:19:52;9.26;78.91
73133;DHT22;61320;52.008;4.530;2022-12-05T19:22:18;9.26;78.65
73133;DHT22;61320;52.008;4.530;2022-12-05T19:24:44;9.28;78.85
73133;DHT22;61320;52.008;4.530;2022-12-05T19:27:09;9.28;78.83
73133;DHT22;61320;52.008;4.530;2022-12-05T19:29:37;9.30;78.98
73133;DHT22;61320;52.008;4.530;2022-12-05T19:32:03;9.31;78.87
73133;DHT22;61320;52.008;4.530;2022-12-05T19:34:29;9.35;78.60
73133;DHT22;61320;52.008;4.530;2022-12-05T19:36:54;9.28;78.75
73133;DHT22;61320;52.008;4.530;2022-12-05T19:39:21;9.32;78.65
73133;DHT22;61320;52.008;4.530;2022-12-05T19:41:49;9.32;78.76
73133;DHT22;61320;52.008;4.530;2022-12-05T19:44:15;9.32;78.68
73133;DHT22;61320;52.008;4.530;2022-12-05T19:46:41;9.32;78.66
73133;DHT22;61320;52.008;4.530;2022-12-05T19:49:10;9.31;78.71
73133;DHT22;61320;52.008;4.530;2022-12-05T19:51:36;9.30;78.79
73133;DHT22;61320;52.008;4.530;2022-12-05T19:54:04;9.31;78.84
73133;DHT22;61320;52.008;4.530;2022-12-05T19:56:32;9.30;78.57
73133;DHT22;61320;52.008;4.530;2022-12-05T19:58:58;9.30;78.43
73133;DHT22;61320;52.008;4.530;2022-12-05T20:01:27;9.28;78.21
73133;DHT22;61320;52.008;4.530;2022-12-05T20:03:56;9.28;78.69
73133;DHT22;61320;52.008;4.530;2022-12-05T20:06:24;9.30;78.30
73133;DHT22;61320;52.008;4.530;2022-12-05T20:08:50;9.30;78.65
73133;DHT22;61320;52.008;4.530;2022-12-05T20:11:20;9.32;78.73
73133;DHT22;61320;52.008;4.530;2022-12-05T20:13:46;9.34;78.92
73133;DHT22;61320;52.008;4.530;2022-12-05T20:16:14;9.34;78.74
73133;DHT22;61320;52.008;4.530;2022-12-05T20:18:40;9.37;78.92
73133;DHT22;61320;52.008;4.530;2022-12-05T20:21:09;9.37;78.46
73133;DHT22;61320;52.008;4.530;2022-12-05T20:23:35;9.38;78.75
73133;DHT22;61320;52.008;4.530;2022-12-05T20:26:04;9.39;78.98
73133;DHT22;61320;52.008;4.530;2022-12-05T20:28:30;9.42;78.03
73133;DHT22;61320;52.008;4.530;2022-12-05T20:31:05;9.37;78.30
73133;DHT22;61320;52.008;4.530;2022-12-05T20:33:31;9.38;78.17
73133;DHT22;61320;52.008;4.530;2022-12-05T20:36:02;9.38;77.63
73133;DHT22;61320;52.008;4.530;2022-12-05T20:38:27;9.32;78.80
73133;DHT22;61320;52.008;4.530;2022-12-05T20:41:03;9.32;77.76
73133;DHT22;61320;52.008;4.530;2022-12-05T20:43:30;9.28;78.64
73133;DHT22;61320;52.008;4.530;2022-12-05T20:45:55;9.31;78.42
73133;DHT22;61320;52.008;4.530;2022-12-05T20:48:22;9.34;78.88
73133;DHT22;61320;52.008;4.530;2022-12-05T20:50:53;9.32;78.72
73133;DHT22;61320;52.008;4.530;2022-12-05T20:53:19;9.38;78.40
73133;DHT22;61320;52.008;4.530;2022-12-05T20:55:45;9.32;78.10
73133;DHT22;61320;52.008;4.530;2022-12-05T20:58:11;9.34;78.49
73133;DHT22;61320;52.008;4.530;2022-12-05T21:00:36;9.32;78.65
73133;DHT22;61320;52.008;4.530;2022-12-05T21:03:02;9.34;78.68
73133;DHT22;61320;52.008;4.530;2022-12-05T21:05:28;9.35;78.62
73133;DHT22;61320;52.008;4.530;2022-12-05T21:07:53;9.32;77.87
73133;DHT22;61320;52.008;4.530;2022-12-05T21:10:19;9.32;78.72
73133;DHT22;61320;52.008;4.530;2022-12-05T21:12:44;9.30;78.17
73133;DHT22;61320;52.008;4.530;2022-12-05T21:15:10;9.27;78.15
73133;DHT22;61320;52.008;4.530;2022-12-05T21:17:36;9.24;78.49
73133;DHT22;61320;52.008;4.530;2022-12-05T21:20:03;9.24;78.39
73133;DHT22;61320;52.008;4.530;2022-12-05T21:22:29;9.23;77.98
73133;DHT22;61320;52.008;4.530;2022-12-05T21:24:54;9.18;78.37
73133;DHT22;61320;52.008;4.530;2022-12-05T21:27:20;9.20;78.41
73133;DHT22;61320;52.008;4.530;2022-12-05T21:29:45;9.23;78.63
73133;DHT22;61320;52.008;4.530;2022-12-05T21:32:11;9.20;78.45
73133;DHT22;61320;52.008;4.530;2022-12-05T21:34:37;9.24;79.12
73133;DHT22;61320;52.008;4.530;2022-12-05T21:37:03;9.27;78.71
73133;DHT22;61320;52.008;4.530;2022-12-05T21:39:29;9.27;78.65
73133;DHT22;61320;52.008;4.530;2022-12-05T21:41:54;9.31;78.50
73133;DHT22;61320;52.008;4.530;2022-12-05T21:44:20;9.31;78.50
73133;DHT22;61320;52.008;4.530;2022-12-05T21:46:46;9.31;78.34
73133;DHT22;61320;52.008;4.530;2022-12-05T21:49:12;9.30;78.27
73133;DHT22;61320;52.008;4.530;2022-12-05T21:54:47;9.31;78.65
73133;DHT22;61320;52.008;4.530;2022-12-05T21:57:13;9.30;78.42
73133;DHT22;61320;52.008;4.530;2022-12-05T21:59:38;9.28;77.83
73133;DHT22;61320;52.008;4.530;2022-12-05T22:02:04;9.23;83.23
73133;DHT22;61320;52.008;4.530;2022-12-05T22:04:29;9.31;78.90
73133;DHT22;61320;52.008;4.530;2022-12-05T22:06:55;9.31;78.43
73133;DHT22;61320;52.008;4.530;2022-12-05T22:09:21;9.30;78.58
73133;DHT22;61320;52.008;4.530;2022-12-05T22:11:46;9.27;78.50
73133;DHT22;61320;52.008;4.530;2022-12-05T22:14:12;9.30;78.66
73133;DHT22;61320;52.008;4.530;2022-12-05T22:16:37;9.30;78.44
73133;DHT22;61320;52.008;4.530;2022-12-05T22:19:03;9.31;77.71
73133;DHT22;61320;52.008;4.530;2022-12-05T22:21:29;9.27;78.77
73133;DHT22;61320;52.008;4.530;2022-12-05T22:23:55;9.30;78.85
73133;DHT22;61320;52.008;4.530;2022-12-05T22:26:23;9.32;78.59
73133;DHT22;61320;52.008;4.530;2022-12-05T22:28:50;9.34;78.48
73133;DHT22;61320;52.008;4.530;2022-12-05T22:31:18;9.34;78.32
73133;DHT22;61320;52.008;4.530;2022-12-05T22:33:44;9.32;78.41
73133;DHT22;61320;52.008;4.530;2022-12-05T22:36:13;9.34;78.03